Time;durP1;ratioP1;P1;durP2;ratioP2;P2;SDS_P1;SDS_P2;PMS_P1;PMS_P2;Temp;Humidity;BMP_temperature;BMP_pressure;BME280_temperature;BME280_humidity;BME280_pressure;Samples;Min_cycle;Max_cycle;Signal;HPM_P1;HPM_P2
2022/11/12 00:00:13;;;;;;;;;;;18.50;55.80;;;;;;5071746;28;20066;-69
2022/11/12 00:02:38;;;;;;;;;;;18.50;55.70;;;;;;5072776;28;19932;-70
2022/11/12 00:05:04;;;;;;;;;;;18.50;55.80;;;;;;5071382;28;20376;-70
2022/11/12 00:07:29;;;;;;;;;;;18.40;55.70;;;;;;5071493;28;19981;-69
2022/11/12 00:09:55;;;;;;;;;;;18.50;55.70;;;;;;5072648;28;19991;-69
2022/11/12 00:12:23;;;;;;;;;;;18.50;55.80;;;;;;5071731;28;20456;-69
2022/11/12 00:14:49;;;;;;;;;;;18.60;55.80;;;;;;5071668;28;20254;-70
2022/11/12 00:17:14;;;;;;;;;;;18.50;55.70;;;;;;5071276;28;19926;-72
2022/11/12 00:19:40;;;;;;;;;;;18.40;55.70;;;;;;5072624;28;19924;-69
2022/11/12 00:22:05;;;;;;;;;;;18.40;55.70;;;;;;5071471;28;19921;-70
2022/11/12 00:24:31;;;;;;;;;;;18.40;55.70;;;;;;5071250;28;20383;-69
2022/11/12 00:26:56;;;;;;;;;;;18.40;55.70;;;;;;5071153;28;19942;-69
2022/11/12 00:29:22;;;;;;;;;;;18.40;55.80;;;;;;5071213;28;20291;-72
2022/11/12 00:31:47;;;;;;;;;;;18.40;55.80;;;;;;5072309;28;19928;-70
2022/11/12 00:34:13;;;;;;;;;;;18.30;56.60;;;;;;5072468;28;19960;-69
2022/11/12 00:36:39;;;;;;;;;;;18.30;55.90;;;;;;5071047;28;20394;-69
2022/11/12 00:39:04;;;;;;;;;;;18.30;55.80;;;;;;5071399;28;19959;-69
2022/11/12 00:41:30;;;;;;;;;;;18.30;55.90;;;;;;5072324;28;19920;-69
2022/11/12 00:43:55;;;;;;;;;;;18.30;55.90;;;;;;5071362;28;19921;-69
2022/11/12 00:46:21;;;;;;;;;;;18.30;56.00;;;;;;5070796;28;20298;-69
2022/11/12 00:48:46;;;;;;;;;;;18.30;55.90;;;;;;5071082;28;19942;-69
2022/11/12 00:51:12;;;;;;;;;;;18.30;56.00;;;;;;5071221;28;20296;-69
2022/11/12 00:53:37;;;;;;;;;;;18.30;55.90;;;;;;5072112;28;19917;-70
2022/11/12 00:56:04;;;;;;;;;;;18.30;55.90;;;;;;5070940;28;20335;-69
2022/11/12 00:58:30;;;;;;;;;;;18.20;55.80;;;;;;5071148;28;19927;-69
2022/11/12 01:00:56;;;;;;;;;;;18.20;55.80;;;;;;5071169;28;20431;-69
2022/11/12 01:03:22;;;;;;;;;;;18.20;55.90;;;;;;5070826;28;19954;-69
2022/11/12 01:05:47;;;;;;;;;;;18.20;55.90;;;;;;5070814;28;19928;-69
2022/11/12 01:08:13;;;;;;;;;;;18.20;55.80;;;;;;5073418;28;19927;-69
2022/11/12 01:10:38;;;;;;;;;;;18.20;55.90;;;;;;5076126;28;19942;-69
2022/11/12 01:13:04;;;;;;;;;;;18.20;55.90;;;;;;5075955;28;20320;-69
2022/11/12 01:15:29;;;;;;;;;;;18.20;55.80;;;;;;5074781;28;19920;-69
2022/11/12 01:17:55;;;;;;;;;;;18.20;55.80;;;;;;5074600;28;19924;-69
2022/11/12 01:20:20;;;;;;;;;;;18.20;55.90;;;;;;5074490;28;19971;-69
2022/11/12 01:22:46;;;;;;;;;;;18.10;55.80;;;;;;5074503;28;20027;-71
2022/11/12 01:25:11;;;;;;;;;;;18.10;55.80;;;;;;5074461;28;19924;-69
2022/11/12 01:27:37;;;;;;;;;;;18.10;55.80;;;;;;5074446;28;19960;-69
2022/11/12 01:30:03;;;;;;;;;;;18.10;55.80;;;;;;5075772;28;19920;-69
2022/11/12 01:32:29;;;;;;;;;;;18.10;55.90;;;;;;5074554;28;19920;-69
2022/11/12 01:34:54;;;;;;;;;;;18.10;55.80;;;;;;5075614;28;19977;-71
2022/11/12 01:37:20;;;;;;;;;;;18.10;55.80;;;;;;5074317;28;19921;-69
2022/11/12 01:39:45;;;;;;;;;;;18.10;55.80;;;;;;5074515;28;19943;-69
2022/11/12 01:42:11;;;;;;;;;;;18.10;55.80;;;;;;5074176;28;20299;-69
2022/11/12 01:44:38;;;;;;;;;;;18.20;55.90;;;;;;5074371;28;19920;-69
2022/11/12 01:47:10;;;;;;;;;;;18.10;55.90;;;;;;5073820;28;19939;-69
2022/11/12 01:52:27;;;;;;;;;;;18.10;55.90;;;;;;5089935;28;20356;-69
2022/11/12 01:54:53;;;;;;;;;;;18.10;55.80;;;;;;5088486;28;19970;-70
2022/11/12 01:57:21;;;;;;;;;;;18.00;55.80;;;;;;5088883;28;19924;-69
2022/11/12 01:59:48;;;;;;;;;;;18.00;55.80;;;;;;5088752;28;19920;-72
2022/11/12 02:02:13;;;;;;;;;;;18.00;55.80;;;;;;5088799;28;19920;-69
2022/11/12 02:04:41;;;;;;;;;;;18.00;55.70;;;;;;5089842;28;20372;-69
2022/11/12 02:07:07;;;;;;;;;;;18.00;55.80;;;;;;5088749;28;19967;-69
2022/11/12 02:09:33;;;;;;;;;;;18.00;55.70;;;;;;5088530;28;19927;-69
2022/11/12 02:11:59;;;;;;;;;;;18.00;55.80;;;;;;5089521;28;20343;-69
2022/11/12 02:14:25;;;;;;;;;;;18.00;55.70;;;;;;5088249;28;19965;-69
2022/11/12 02:16:51;;;;;;;;;;;18.00;55.80;;;;;;5088487;28;20019;-69
2022/11/12 02:19:17;;;;;;;;;;;18.00;55.80;;;;;;5089686;28;19967;-72
2022/11/12 02:21:43;;;;;;;;;;;18.00;55.80;;;;;;5089313;28;19993;-69
2022/11/12 02:26:52;;;;;;;;;;;17.90;55.70;;;;;;5110346;27;19912;-69
2022/11/12 02:29:18;;;;;;;;;;;17.90;55.70;;;;;;5108886;28;19927;-69
2022/11/12 02:31:43;;;;;;;;;;;17.90;55.70;;;;;;5108895;28;20023;-69
2022/11/12 02:34:09;;;;;;;;;;;17.90;55.70;;;;;;5109207;28;19974;-69
2022/11/12 02:36:34;;;;;;;;;;;17.90;55.70;;;;;;5110106;28;20299;-69
2022/11/12 02:39:00;;;;;;;;;;;17.90;55.70;;;;;;5109164;28;19920;-72
2022/11/12 02:41:26;;;;;;;;;;;17.90;55.80;;;;;;5109052;28;19920;-69
2022/11/12 02:43:51;;;;;;;;;;;17.90;55.70;;;;;;5110028;28;19920;-69
2022/11/12 02:46:17;;;;;;;;;;;17.90;55.70;;;;;;5108513;28;20314;-69
2022/11/12 02:48:43;;;;;;;;;;;17.90;55.70;;;;;;5109906;28;19920;-69
2022/11/12 02:51:08;;;;;;;;;;;17.90;55.70;;;;;;5108584;28;20315;-69
2022/11/12 02:53:34;;;;;;;;;;;17.90;55.70;;;;;;5108875;28;20023;-69
2022/11/12 02:56:00;;;;;;;;;;;17.80;55.60;;;;;;5108717;28;20049;-69
2022/11/12 02:58:26;;;;;;;;;;;17.80;55.70;;;;;;5108482;28;19920;-69
2022/11/12 03:00:51;;;;;;;;;;;17.80;55.70;;;;;;5142971;27;19942;-72
2022/11/12 03:03:17;;;;;;;;;;;17.80;55.70;;;;;;5108669;28;19931;-69
2022/11/12 03:05:43;;;;;;;;;;;17.80;55.70;;;;;;5109833;28;19924;-69
2022/11/12 03:08:09;;;;;;;;;;;17.80;55.70;;;;;;5108181;28;19920;-69
2022/11/12 03:10:37;;;;;;;;;;;17.80;55.60;;;;;;5108127;28;19926;-69
2022/11/12 03:13:02;;;;;;;;;;;17.80;55.60;;;;;;5109413;28;19924;-69
2022/11/12 03:15:28;;;;;;;;;;;17.80;55.70;;;;;;5108500;28;20352;-69
2022/11/12 03:17:53;;;;;;;;;;;17.80;55.60;;;;;;5109186;28;19969;-69
2022/11/12 03:20:19;;;;;;;;;;;17.80;55.60;;;;;;5109205;28;19978;-69
2022/11/12 03:23:01;;;;;;;;;;;17.80;55.60;;;;;;5108179;28;19920;-69
2022/11/12 03:25:27;;;;;;;;;;;17.80;55.60;;;;;;5107593;28;19973;-69
2022/11/12 03:28:01;;;;;;;;;;;17.80;55.60;;;;;;5109117;28;19920;-69
2022/11/12 03:30:28;;;;;;;;;;;17.70;55.50;;;;;;5107801;28;19920;-69
2022/11/12 03:32:53;;;;;;;;;;;17.70;55.50;;;;;;5141997;27;20440;-69
2022/11/12 03:35:19;;;;;;;;;;;17.80;55.50;;;;;;5107666;28;19920;-70
2022/11/12 03:37:44;;;;;;;;;;;17.70;55.50;;;;;;5096748;28;19920;-69
2022/11/12 03:40:10;;;;;;;;;;;17.70;55.50;;;;;;5094397;28;20010;-69
2022/11/12 03:42:35;;;;;;;;;;;17.70;55.60;;;;;;5095205;28;20298;-69
2022/11/12 03:45:01;;;;;;;;;;;17.60;55.40;;;;;;5095105;28;19931;-72
2022/11/12 03:47:26;;;;;;;;;;;17.70;55.50;;;;;;5094149;28;19926;-69
2022/11/12 03:49:52;;;;;;;;;;;17.70;55.50;;;;;;5128060;27;20283;-69
2022/11/12 03:52:17;;;;;;;;;;;17.70;55.50;;;;;;5095172;28;19946;-69
2022/11/12 03:54:43;;;;;;;;;;;17.70;55.50;;;;;;5093778;28;19932;-69
2022/11/12 03:57:08;;;;;;;;;;;17.70;55.50;;;;;;5094990;28;19920;-69
2022/11/12 03:59:34;;;;;;;;;;;17.60;55.50;;;;;;5094944;28;20371;-69
2022/11/12 04:01:59;;;;;;;;;;;17.60;55.50;;;;;;5093598;28;19924;-69
2022/11/12 04:08:34;;;;;;;;;;;17.60;55.50;;;;;;5093479;28;19920;-69
2022/11/12 04:09:56;;;;;;;;;;;17.60;55.40;;;;;;5093578;28;19943;-69
2022/11/12 04:15:07;;;;;;;;;;;17.60;55.40;;;;;;5094506;28;19966;-69
2022/11/12 04:23:03;;;;;;;;;;;17.50;55.40;;;;;;5127131;27;20387;-69
2022/11/12 04:28:14;;;;;;;;;;;17.50;55.40;;;;;;5094234;28;20348;-69
2022/11/12 04:30:40;;;;;;;;;;;17.50;55.40;;;;;;5093061;28;19971;-69
2022/11/12 04:33:05;;;;;;;;;;;17.50;55.40;;;;;;5094270;28;20002;-69
2022/11/12 04:35:31;;;;;;;;;;;17.50;55.40;;;;;;5094188;28;19920;-69
2022/11/12 04:37:57;;;;;;;;;;;17.50;55.40;;;;;;5094260;28;20321;-69
2022/11/12 04:45:56;;;;;;;;;;;17.50;55.40;;;;;;5093746;28;19924;-69
2022/11/12 04:48:22;;;;;;;;;;;17.40;55.30;;;;;;5093160;28;20038;-69
2022/11/12 04:50:49;;;;;;;;;;;17.40;55.30;;;;;;5092955;28;19935;-71
2022/11/12 04:53:15;;;;;;;;;;;17.40;55.30;;;;;;5092712;28;19997;-69
2022/11/12 04:55:40;;;;;;;;;;;17.40;55.30;;;;;;5092516;28;19959;-69
2022/11/12 04:58:06;;;;;;;;;;;17.40;55.30;;;;;;5093763;28;19927;-69
2022/11/12 05:00:32;;;;;;;;;;;17.40;55.30;;;;;;5093685;28;20000;-69
2022/11/12 05:02:57;;;;;;;;;;;17.40;55.30;;;;;;5092725;28;19924;-69
2022/11/12 05:05:23;;;;;;;;;;;17.40;55.30;;;;;;5093768;28;19924;-69
2022/11/12 05:07:48;;;;;;;;;;;17.40;55.30;;;;;;5093792;28;19920;-68
2022/11/12 05:10:14;;;;;;;;;;;17.40;55.30;;;;;;5093536;28;20011;-68
2022/11/12 05:12:40;;;;;;;;;;;17.40;55.30;;;;;;5092263;28;20520;-69
2022/11/12 05:15:06;;;;;;;;;;;17.30;55.30;;;;;;5092475;28;19920;-69
2022/11/12 05:17:31;;;;;;;;;;;17.40;55.30;;;;;;5092160;28;20019;-69
2022/11/12 05:19:57;;;;;;;;;;;17.30;55.30;;;;;;5092071;28;19921;-69
2022/11/12 05:22:22;;;;;;;;;;;17.40;55.30;;;;;;5092017;28;19928;-69
2022/11/12 05:24:48;;;;;;;;;;;17.30;55.30;;;;;;5091736;28;19977;-69
2022/11/12 05:27:15;;;;;;;;;;;17.30;55.20;;;;;;5091925;28;19977;-69
2022/11/12 05:29:41;;;;;;;;;;;17.30;55.30;;;;;;5092251;28;20020;-69
2022/11/12 05:32:07;;;;;;;;;;;17.30;55.70;;;;;;5093113;28;20448;-69
2022/11/12 05:34:33;;;;;;;;;;;17.30;55.30;;;;;;5091915;28;19920;-69
2022/11/12 05:37:00;;;;;;;;;;;17.30;55.30;;;;;;5091789;28;19991;-69
2022/11/12 05:39:25;;;;;;;;;;;17.30;55.30;;;;;;5093097;28;19927;-68
2022/11/12 05:41:51;;;;;;;;;;;17.30;55.30;;;;;;5093059;28;20284;-69
2022/11/12 05:44:17;;;;;;;;;;;17.30;55.30;;;;;;5092902;28;20414;-69
2022/11/12 05:46:42;;;;;;;;;;;17.30;56.00;;;;;;5092799;28;19924;-68
2022/11/12 05:49:08;;;;;;;;;;;17.20;55.30;;;;;;5092867;28;20433;-69
2022/11/12 05:51:33;;;;;;;;;;;17.20;55.20;;;;;;5092819;28;20421;-68
2022/11/12 05:53:59;;;;;;;;;;;17.20;55.20;;;;;;5125561;27;20291;-69
2022/11/12 05:56:25;;;;;;;;;;;17.20;55.20;;;;;;5091701;28;19920;-69
2022/11/12 05:58:50;;;;;;;;;;;17.20;55.90;;;;;;5091514;28;19920;-69
2022/11/12 06:01:16;;;;;;;;;;;17.30;55.20;;;;;;5091483;28;19920;-68
2022/11/12 06:03:41;;;;;;;;;;;17.20;55.10;;;;;;5092156;28;19927;-69
2022/11/12 06:06:07;;;;;;;;;;;17.20;55.10;;;;;;5090859;28;19924;-68
2022/11/12 06:08:32;;;;;;;;;;;17.20;55.10;;;;;;5091605;28;19920;-68
2022/11/12 06:10:58;;;;;;;;;;;17.20;55.10;;;;;;5092607;28;20012;-68
2022/11/12 06:13:24;;;;;;;;;;;17.20;55.10;;;;;;5091108;28;19931;-69
2022/11/12 06:15:50;;;;;;;;;;;17.20;55.10;;;;;;5091360;28;20021;-68
2022/11/12 06:18:16;;;;;;;;;;;17.20;55.10;;;;;;5091406;28;19985;-68
2022/11/12 06:20:41;;;;;;;;;;;17.10;55.00;;;;;;5125572;27;19920;-68
2022/11/12 06:23:07;;;;;;;;;;;17.10;55.00;;;;;;5091035;28;19920;-68
2022/11/12 06:25:33;;;;;;;;;;;17.10;55.00;;;;;;5107810;28;19924;-68
2022/11/12 06:27:59;;;;;;;;;;;17.10;55.00;;;;;;5092380;28;19963;-72
2022/11/12 06:30:24;;;;;;;;;;;17.10;55.00;;;;;;5092355;28;19995;-68
2022/11/12 06:32:50;;;;;;;;;;;17.10;55.00;;;;;;5091245;28;19968;-68
2022/11/12 06:35:16;;;;;;;;;;;17.10;54.90;;;;;;5091323;28;19946;-68
2022/11/12 06:37:42;;;;;;;;;;;17.10;55.00;;;;;;5092554;28;20449;-68
2022/11/12 06:40:08;;;;;;;;;;;17.10;55.00;;;;;;5091044;28;19996;-68
2022/11/12 06:42:33;;;;;;;;;;;17.10;55.00;;;;;;5092241;28;19977;-68
2022/11/12 06:44:59;;;;;;;;;;;17.00;54.90;;;;;;5091157;28;19924;-68
2022/11/12 06:47:25;;;;;;;;;;;17.00;54.90;;;;;;5125211;28;20381;-68
2022/11/12 06:49:50;;;;;;;;;;;17.00;54.90;;;;;;5091091;28;19920;-71
2022/11/12 06:52:16;;;;;;;;;;;17.00;54.90;;;;;;5091291;28;20275;-68
2022/11/12 06:54:41;;;;;;;;;;;17.00;54.90;;;;;;5092108;28;19920;-68
2022/11/12 06:57:07;;;;;;;;;;;17.00;54.90;;;;;;5090828;28;19920;-68
2022/11/12 06:59:32;;;;;;;;;;;17.00;54.90;;;;;;5090860;28;19927;-68
2022/11/12 07:01:58;;;;;;;;;;;17.00;54.90;;;;;;5091068;28;20018;-68
2022/11/12 07:04:24;;;;;;;;;;;17.00;54.90;;;;;;5092034;28;19924;-71
2022/11/12 07:06:49;;;;;;;;;;;17.00;54.80;;;;;;5090652;28;19931;-71
2022/11/12 07:09:15;;;;;;;;;;;17.10;54.70;;;;;;5090731;28;19924;-67
2022/11/12 07:11:41;;;;;;;;;;;17.10;54.50;;;;;;5091412;28;19920;-67
2022/11/12 07:14:06;;;;;;;;;;;17.10;54.30;;;;;;5095816;28;19920;-71
2022/11/12 07:16:32;;;;;;;;;;;17.20;54.30;;;;;;5094903;28;19920;-67
2022/11/12 07:18:58;;;;;;;;;;;17.10;54.10;;;;;;5095740;28;20010;-68
2022/11/12 07:21:23;;;;;;;;;;;17.10;54.10;;;;;;5095509;28;20439;-68
2022/11/12 07:23:49;;;;;;;;;;;17.10;54.10;;;;;;5094310;28;20023;-68
2022/11/12 07:26:17;;;;;;;;;;;17.10;54.10;;;;;;5093973;28;19971;-67
2022/11/12 07:28:43;;;;;;;;;;;17.10;54.10;;;;;;5094585;28;19920;-68
2022/11/12 07:31:10;;;;;;;;;;;17.10;54.10;;;;;;5095504;28;19952;-67
2022/11/12 07:33:35;;;;;;;;;;;17.10;54.10;;;;;;5094200;28;19920;-67
2022/11/12 07:38:39;;;;;;;;;;;17.10;54.00;;;;;;5127985;27;1855425;-68
2022/11/12 07:41:06;;;;;;;;;;;16.90;53.90;;;;;;5193187;27;20022;-72
2022/11/12 07:43:32;;;;;;;;;;;17.10;54.00;;;;;;5174404;27;19983;-67
2022/11/12 07:45:59;;;;;;;;;;;17.10;54.00;;;;;;5174626;27;19941;-67
2022/11/12 07:48:24;;;;;;;;;;;17.10;54.00;;;;;;5174718;27;19918;-68
2022/11/12 07:50:50;;;;;;;;;;;17.10;54.00;;;;;;5192965;27;19941;-68
2022/11/12 07:53:15;;;;;;;;;;;17.10;54.00;;;;;;5174297;27;20389;-67
2022/11/12 07:55:41;;;;;;;;;;;17.10;53.90;;;;;;5193194;27;19969;-67
2022/11/12 07:58:06;;;;;;;;;;;17.10;53.90;;;;;;5192921;27;19923;-67
2022/11/12 08:00:32;;;;;;;;;;;17.00;53.90;;;;;;5174102;27;19922;-68
2022/11/12 08:03:00;;;;;;;;;;;17.00;53.80;;;;;;5174072;27;19951;-71
2022/11/12 08:05:25;;;;;;;;;;;17.10;53.90;;;;;;5174222;27;19991;-67
2022/11/12 08:07:53;;;;;;;;;;;17.10;53.90;;;;;;5192678;27;20437;-67
2022/11/12 08:10:19;;;;;;;;;;;17.00;53.80;;;;;;5192683;27;20393;-67
2022/11/12 08:12:44;;;;;;;;;;;17.10;53.90;;;;;;5173829;27;19925;-67
2022/11/12 08:15:10;;;;;;;;;;;17.00;53.80;;;;;;5173810;27;19926;-68
2022/11/12 08:17:37;;;;;;;;;;;17.00;53.80;;;;;;5173653;27;19980;-68
2022/11/12 08:20:02;;;;;;;;;;;17.00;53.80;;;;;;5173974;27;19923;-67
2022/11/12 08:22:30;;;;;;;;;;;17.10;53.90;;;;;;5173869;27;19926;-67
2022/11/12 08:24:55;;;;;;;;;;;17.00;53.80;;;;;;5173896;27;19925;-67
2022/11/12 08:27:20;;;;;;;;;;;17.00;53.80;;;;;;5192412;27;19993;-68
2022/11/12 08:29:46;;;;;;;;;;;17.00;53.80;;;;;;5192352;27;19918;-67
2022/11/12 08:32:11;;;;;;;;;;;17.00;53.80;;;;;;5173696;27;19929;-68
2022/11/12 08:34:40;;;;;;;;;;;17.00;53.90;;;;;;5173451;27;19925;-67
2022/11/12 08:37:05;;;;;;;;;;;16.90;53.90;;;;;;5173100;27;19970;-68
2022/11/12 08:39:31;;;;;;;;;;;16.90;53.90;;;;;;5173571;27;20013;-67
2022/11/12 08:41:57;;;;;;;;;;;16.90;54.00;;;;;;5173468;27;20311;-68
2022/11/12 08:44:22;;;;;;;;;;;16.90;54.10;;;;;;5173525;27;19923;-68
2022/11/12 08:46:49;;;;;;;;;;;16.90;54.10;;;;;;5173144;27;19919;-67
2022/11/12 08:49:14;;;;;;;;;;;16.80;54.10;;;;;;5163764;27;19925;-67
2022/11/12 08:51:40;;;;;;;;;;;16.80;54.20;;;;;;5159105;27;19923;-68
2022/11/12 08:54:05;;;;;;;;;;;16.80;54.20;;;;;;5177863;27;19966;-68
2022/11/12 08:56:32;;;;;;;;;;;16.80;54.30;;;;;;5177863;27;19923;-68
2022/11/12 08:58:58;;;;;;;;;;;16.80;54.30;;;;;;5158960;27;20373;-68
2022/11/12 09:01:24;;;;;;;;;;;16.80;54.40;;;;;;5159292;27;20009;-68
2022/11/12 09:03:49;;;;;;;;;;;16.70;54.40;;;;;;5177674;27;20023;-68
2022/11/12 09:06:15;;;;;;;;;;;16.70;54.40;;;;;;5158869;27;19919;-68
2022/11/12 09:08:40;;;;;;;;;;;16.70;54.40;;;;;;5158800;27;19973;-68
2022/11/12 09:11:06;;;;;;;;;;;16.80;54.50;;;;;;5159185;27;19941;-68
2022/11/12 09:13:32;;;;;;;;;;;16.70;54.50;;;;;;5158713;27;20348;-68
2022/11/12 09:16:01;;;;;;;;;;;16.70;54.50;;;;;;5159061;27;19922;-68
2022/11/12 09:18:27;;;;;;;;;;;16.70;54.50;;;;;;5158498;27;20382;-68
2022/11/12 09:20:53;;;;;;;;;;;16.70;54.50;;;;;;5158396;27;19926;-68
2022/11/12 09:23:18;;;;;;;;;;;16.70;54.50;;;;;;5176920;27;19918;-68
2022/11/12 09:25:44;;;;;;;;;;;16.70;54.50;;;;;;5158819;27;19941;-68
2022/11/12 09:28:11;;;;;;;;;;;16.70;54.60;;;;;;5177125;27;19919;-68
2022/11/12 09:30:40;;;;;;;;;;;16.70;54.60;;;;;;5158759;27;19919;-68
2022/11/12 09:33:05;;;;;;;;;;;16.70;54.60;;;;;;5158296;27;19919;-68
2022/11/12 09:35:31;;;;;;;;;;;16.70;54.60;;;;;;5177006;27;20013;-68
2022/11/12 09:37:58;;;;;;;;;;;16.70;54.60;;;;;;5158008;27;20289;-68
2022/11/12 09:40:30;;;;;;;;;;;16.70;54.60;;;;;;5158449;27;19925;-68
2022/11/12 09:42:56;;;;;;;;;;;16.70;54.60;;;;;;5158191;27;20454;-67
2022/11/12 09:45:26;;;;;;;;;;;16.70;54.60;;;;;;5158113;27;20001;-68
2022/11/12 09:47:55;;;;;;;;;;;16.70;54.60;;;;;;5176895;27;19971;-68
2022/11/12 09:50:25;;;;;;;;;;;16.70;54.60;;;;;;5158316;27;20378;-72
2022/11/12 09:52:55;;;;;;;;;;;16.70;54.60;;;;;;5157979;27;19918;-67
2022/11/12 09:55:26;;;;;;;;;;;16.70;54.60;;;;;;5158118;27;19971;-71
2022/11/12 09:57:52;;;;;;;;;;;16.70;54.70;;;;;;5157847;27;20053;-68
2022/11/12 10:00:18;;;;;;;;;;;16.70;54.60;;;;;;5175470;27;20066;-68
2022/11/12 10:08:28;;;;;;;;;;;16.70;54.70;;;;;;5127222;27;1875190;-68
2022/11/12 10:11:00;;;;;;;;;;;16.60;54.70;;;;;;5174627;27;19918;-68
2022/11/12 10:13:32;;;;;;;;;;;16.70;54.70;;;;;;5174325;27;19953;-68
2022/11/12 10:21:53;;;;;;;;;;;16.60;54.70;;;;;;5089853;28;19912;-69
2022/11/12 10:24:20;;;;;;;;;;;16.70;54.80;;;;;;5088378;28;19974;-71
2022/11/12 10:26:47;;;;;;;;;;;16.70;54.80;;;;;;5089780;28;19974;-70
2022/11/12 10:29:27;;;;;;;;;;;16.70;54.80;;;;;;5088875;28;19921;-70
2022/11/12 10:31:52;;;;;;;;;;;16.60;54.80;;;;;;5088418;28;20324;-74
2022/11/12 10:34:19;;;;;;;;;;;16.60;54.80;;;;;;5088425;28;20015;-74
2022/11/12 10:36:47;;;;;;;;;;;16.60;54.80;;;;;;5088320;28;19932;-71
2022/11/12 10:39:33;;;;;;;;;;;16.60;54.70;;;;;;5085403;28;19924;-74
2022/11/12 10:42:14;;;;;;;;;;;16.60;54.80;;;;;;5075922;28;20007;-70
2022/11/12 10:44:42;;;;;;;;;;;16.70;54.80;;;;;;5069318;28;19920;-69
2022/11/12 10:47:17;;;;;;;;;;;16.60;54.80;;;;;;5068115;28;20035;-70
2022/11/12 10:49:42;;;;;;;;;;;16.60;54.80;;;;;;5069435;28;19920;-73
2022/11/12 10:52:23;;;;;;;;;;;16.60;54.80;;;;;;5068111;28;19920;-69
2022/11/12 10:55:01;;;;;;;;;;;16.60;54.90;;;;;;5067858;28;19920;-70
2022/11/12 10:57:27;;;;;;;;;;;16.60;54.80;;;;;;5067575;28;20062;-69
2022/11/12 11:00:12;;;;;;;;;;;16.70;55.60;;;;;;5067810;28;20007;-70
2022/11/12 11:02:46;;;;;;;;;;;16.60;54.80;;;;;;5067547;28;19982;-70
2022/11/12 11:08:09;;;;;;;;;;;16.60;54.90;;;;;;5110155;27;19912;-71
2022/11/12 11:10:35;;;;;;;;;;;16.60;54.90;;;;;;5136763;27;20342;-68
2022/11/12 11:13:21;;;;;;;;;;;16.60;54.90;;;;;;5109143;28;19920;-68
2022/11/12 11:16:03;;;;;;;;;;;16.60;54.90;;;;;;5109064;28;19981;-68
2022/11/12 11:18:29;;;;;;;;;;;16.60;55.00;;;;;;5108713;28;19943;-71
2022/11/12 11:21:15;;;;;;;;;;;16.60;55.70;;;;;;5108899;28;19949;-68
2022/11/12 11:29:21;;;;;;;;;;;16.60;55.00;;;;;;5110231;27;19940;-68
2022/11/12 11:32:07;;;;;;;;;;;16.60;55.00;;;;;;5107913;28;19955;-68
2022/11/12 11:34:41;;;;;;;;;;;16.60;55.00;;;;;;5108777;28;19927;-68
2022/11/12 11:37:18;;;;;;;;;;;16.60;55.00;;;;;;5108838;28;19920;-68
2022/11/12 11:39:56;;;;;;;;;;;16.60;55.00;;;;;;5110106;28;20022;-69
2022/11/12 11:45:08;;;;;;;;;;;16.60;55.10;;;;;;5110343;27;19912;-69
2022/11/12 11:47:54;;;;;;;;;;;16.60;55.10;;;;;;5110217;28;19924;-68
2022/11/12 11:50:28;;;;;;;;;;;16.60;55.10;;;;;;5108993;28;20329;-69
2022/11/12 11:53:00;;;;;;;;;;;16.60;55.10;;;;;;5109110;28;19947;-69
2022/11/12 11:58:10;;;;;;;;;;;16.50;55.10;;;;;;5127833;27;1860575;-68
2022/11/12 12:00:43;;;;;;;;;;;16.60;55.10;;;;;;5174739;27;19918;-69
2022/11/12 12:03:18;;;;;;;;;;;16.60;55.20;;;;;;5193244;27;20026;-68
2022/11/12 12:05:50;;;;;;;;;;;16.60;55.10;;;;;;5174500;27;19919;-68
2022/11/12 12:08:21;;;;;;;;;;;16.60;55.20;;;;;;5174266;27;19922;-70
2022/11/12 12:16:30;;;;;;;;;;;16.60;55.20;;;;;;5110334;27;20295;-69
2022/11/12 12:21:37;;;;;;;;;;;16.50;55.20;;;;;;5128276;27;1845342;-68
2022/11/12 12:24:23;;;;;;;;;;;16.60;55.30;;;;;;5174379;27;20285;-69
2022/11/12 12:26:52;;;;;;;;;;;16.60;55.20;;;;;;5174269;27;19927;-69
2022/11/12 12:29:24;;;;;;;;;;;16.60;55.20;;;;;;5193074;27;20365;-69
2022/11/12 12:31:51;;;;;;;;;;;16.60;55.30;;;;;;5174625;27;19933;-71
2022/11/12 12:34:23;;;;;;;;;;;16.60;55.20;;;;;;5174198;27;19925;-69
2022/11/12 12:36:50;;;;;;;;;;;16.60;55.30;;;;;;5174586;27;19984;-69
2022/11/12 12:39:17;;;;;;;;;;;16.50;55.30;;;;;;5174408;27;19986;-71
2022/11/12 12:42:03;;;;;;;;;;;16.50;55.30;;;;;;5174133;27;19919;-69
2022/11/12 12:45:07;;;;;;;;;;;16.60;55.30;;;;;;5192636;27;19938;-69
2022/11/12 12:47:21;;;;;;;;;;;16.50;55.30;;;;;;5192694;27;19977;-70
2022/11/12 12:49:48;;;;;;;;;;;16.50;55.30;;;;;;5173917;27;20325;-68
2022/11/12 12:52:16;;;;;;;;;;;16.60;55.30;;;;;;5174261;27;19919;-69
2022/11/12 12:54:53;;;;;;;;;;;16.50;55.30;;;;;;5192622;27;19918;-68
2022/11/12 12:57:36;;;;;;;;;;;16.50;55.30;;;;;;5192572;27;19922;-68
2022/11/12 13:00:21;;;;;;;;;;;16.60;55.40;;;;;;5192617;27;19923;-68
2022/11/12 13:02:47;;;;;;;;;;;16.50;55.30;;;;;;5192301;27;20322;-69
2022/11/12 13:05:22;;;;;;;;;;;16.60;55.40;;;;;;5192409;27;20013;-69
2022/11/12 13:07:48;;;;;;;;;;;16.60;55.40;;;;;;5192392;27;19918;-68
2022/11/12 13:10:33;;;;;;;;;;;16.60;55.50;;;;;;5173533;27;19919;-70
2022/11/12 13:13:01;;;;;;;;;;;16.50;55.40;;;;;;5173697;27;19929;-69
2022/11/12 13:15:45;;;;;;;;;;;16.60;55.40;;;;;;5192264;27;20384;-68
2022/11/12 13:18:31;;;;;;;;;;;16.50;55.40;;;;;;5192258;27;19926;-68
2022/11/12 13:21:13;;;;;;;;;;;16.60;56.20;;;;;;5172771;27;20397;-69
2022/11/12 13:24:18;;;;;;;;;;;16.40;55.40;;;;;;5192135;27;19919;-69
2022/11/12 13:26:48;;;;;;;;;;;16.50;55.50;;;;;;5173426;27;19925;-68
2022/11/12 13:32:19;;;;;;;;;;;16.60;55.60;;;;;;5110056;27;19916;-68
2022/11/12 13:34:44;;;;;;;;;;;16.50;55.50;;;;;;5108360;28;19920;-68
2022/11/12 13:37:17;;;;;;;;;;;16.50;55.60;;;;;;5108686;28;19965;-69
2022/11/12 13:39:42;;;;;;;;;;;16.60;55.60;;;;;;5143607;27;19928;-68
2022/11/12 13:45:00;;;;;;;;;;;16.50;55.60;;;;;;5143150;27;20387;-69
2022/11/12 13:47:28;;;;;;;;;;;16.50;55.60;;;;;;5109071;28;19927;-71
2022/11/12 13:49:54;;;;;;;;;;;16.50;55.70;;;;;;5109827;28;20348;-70
2022/11/12 13:52:20;;;;;;;;;;;16.50;55.60;;;;;;5110133;28;19924;-69
2022/11/12 13:54:46;;;;;;;;;;;16.50;55.60;;;;;;5110111;28;19920;-69
2022/11/12 14:00:20;;;;;;;;;;;16.40;55.60;;;;;;5127911;27;1856956;-70
2022/11/12 14:02:48;;;;;;;;;;;16.70;55.80;;;;;;5174060;27;19923;-68
2022/11/12 14:05:16;;;;;;;;;;;16.50;55.80;;;;;;5174763;27;19918;-68
2022/11/12 14:07:48;;;;;;;;;;;16.50;55.80;;;;;;5174278;27;19971;-69
2022/11/12 14:10:34;;;;;;;;;;;16.50;55.80;;;;;;5174338;27;19923;-68
2022/11/12 14:13:19;;;;;;;;;;;16.50;55.80;;;;;;5173850;27;19961;-68
2022/11/12 14:16:04;;;;;;;;;;;16.50;55.80;;;;;;5174265;27;20021;-71
2022/11/12 14:18:50;;;;;;;;;;;16.50;55.90;;;;;;5173880;27;20409;-68
2022/11/12 14:21:16;;;;;;;;;;;16.50;55.90;;;;;;5192485;27;19918;-69
2022/11/12 14:23:45;;;;;;;;;;;16.50;55.90;;;;;;5173995;27;19927;-69
2022/11/12 14:26:12;;;;;;;;;;;16.50;55.90;;;;;;5192797;27;20358;-68
2022/11/12 14:28:38;;;;;;;;;;;16.50;55.90;;;;;;5173943;27;19919;-68
2022/11/12 14:31:10;;;;;;;;;;;16.50;55.90;;;;;;5192831;27;20261;-68
2022/11/12 14:33:36;;;;;;;;;;;16.50;55.90;;;;;;5192661;27;19919;-68
2022/11/12 14:36:02;;;;;;;;;;;16.50;56.00;;;;;;5192601;27;20378;-68
2022/11/12 14:41:14;;;;;;;;;;;16.50;56.00;;;;;;5110264;27;19912;-69
2022/11/12 14:46:25;;;;;;;;;;;16.40;56.00;;;;;;5110306;27;19912;-69
2022/11/12 14:48:56;;;;;;;;;;;16.40;56.00;;;;;;5108887;28;19919;-68
2022/11/12 14:51:24;;;;;;;;;;;16.50;56.10;;;;;;5108796;28;19999;-71
2022/11/12 14:53:53;;;;;;;;;;;16.50;56.10;;;;;;5108859;28;19920;-69
2022/11/12 14:56:37;;;;;;;;;;;16.50;56.10;;;;;;5109110;28;20296;-69
2022/11/12 14:59:03;;;;;;;;;;;16.40;56.10;;;;;;5108663;28;20436;-69
2022/11/12 15:01:30;;;;;;;;;;;16.50;56.20;;;;;;5108960;28;19930;-69
2022/11/12 15:06:53;;;;;;;;;;;16.40;56.20;;;;;;5110371;27;19919;-68
2022/11/12 15:09:30;;;;;;;;;;;16.40;56.20;;;;;;5108890;28;19920;-68
2022/11/12 15:11:55;;;;;;;;;;;16.50;56.30;;;;;;5108885;28;19923;-69
2022/11/12 15:14:22;;;;;;;;;;;16.40;56.20;;;;;;5108855;28;19985;-69
2022/11/12 15:16:49;;;;;;;;;;;16.40;56.20;;;;;;5092020;28;20395;-68
2022/11/12 15:19:18;;;;;;;;;;;16.40;56.30;;;;;;5108754;28;20403;-69
2022/11/12 15:21:45;;;;;;;;;;;16.50;56.40;;;;;;5108957;28;19973;-69
2022/11/12 15:26:55;;;;;;;;;;;16.40;56.30;;;;;;5110296;27;19912;-70
2022/11/12 15:34:52;;;;;;;;;;;16.40;56.40;;;;;;5089862;28;19918;-68
2022/11/12 15:39:58;;;;;;;;;;;15.80;56.10;;;;;;5089915;28;19913;-69
2022/11/12 15:42:26;;;;;;;;;;;16.40;56.40;;;;;;5089943;28;19927;-68
2022/11/12 15:45:01;;;;;;;;;;;16.40;56.50;;;;;;5088847;28;20010;-69
2022/11/12 15:47:26;;;;;;;;;;;16.40;56.50;;;;;;5088421;28;19920;-68
2022/11/12 15:49:54;;;;;;;;;;;16.40;56.50;;;;;;5088783;28;19927;-69